createdAt,value
2023-04-15T00:01:23.698Z,5.38
2023-04-15T00:03:55.654Z,7.38
2023-04-15T00:06:26.018Z,6.95
2023-04-15T00:08:56.920Z,3.65
2023-04-15T00:11:27.068Z,3.35
2023-04-15T00:13:57.413Z,5.57
2023-04-15T00:16:27.772Z,3.83
2023-04-15T00:18:58.303Z,3.83
2023-04-15T00:21:30.132Z,4.97
2023-04-15T00:24:00.584Z,4.85
2023-04-15T00:26:30.516Z,3.67
2023-04-15T00:29:01.295Z,4.55
2023-04-15T00:31:32.809Z,4.47
2023-04-15T00:34:03.689Z,3.47
2023-04-15T00:36:35.052Z,1.77
2023-04-15T00:39:06.554Z,5.28
2023-04-15T00:41:40.238Z,4.32
2023-04-15T00:44:12.210Z,1.85
2023-04-15T00:46:42.954Z,3.90
2023-04-15T00:49:14.335Z,4.22
2023-04-15T00:51:44.223Z,3.47
2023-04-15T00:54:15.186Z,8.77
2023-04-15T00:56:45.927Z,5.28
2023-04-15T00:59:16.974Z,2.88
2023-04-15T01:01:48.170Z,2.78
2023-04-15T01:04:19.110Z,2.45
2023-04-15T01:06:49.122Z,5.47
2023-04-15T01:09:19.952Z,7.78
2023-04-15T01:11:49.894Z,4.90
2023-04-15T01:14:19.660Z,4.20
2023-04-15T01:16:50.060Z,3.53
2023-04-15T01:19:20.415Z,6.13
2023-04-15T01:21:50.825Z,2.78
2023-04-15T01:24:22.534Z,1.33
2023-04-15T01:26:53.190Z,6.60
2023-04-15T01:29:24.307Z,4.60
2023-04-15T01:31:57.117Z,6.72
2023-04-15T01:34:29.072Z,6.68
2023-04-15T01:36:59.453Z,3.28
2023-04-15T01:39:29.776Z,7.10
2023-04-15T01:42:00.358Z,5.18
2023-04-15T01:44:33.147Z,6.35
2023-04-15T01:47:03.611Z,6.00
2023-04-15T01:49:33.786Z,6.70
2023-04-15T01:52:04.233Z,6.38
2023-04-15T01:54:34.167Z,2.53
2023-04-15T01:57:05.037Z,5.03
2023-04-15T01:59:35.039Z,2.80
2023-04-15T02:02:05.558Z,4.20
2023-04-15T02:04:35.517Z,3.35
2023-04-15T02:07:05.850Z,3.92
2023-04-15T02:09:35.790Z,5.13
2023-04-15T02:12:07.290Z,2.90
2023-04-15T02:14:37.580Z,6.35
2023-04-15T02:17:10.073Z,4.53
2023-04-15T02:20:45.017Z,6.72
2023-04-15T02:23:16.901Z,2.67
2023-04-15T02:25:53.356Z,4.50
2023-04-15T02:28:24.645Z,6.30
2023-04-15T02:30:55.886Z,4.53
2023-04-15T02:33:26.672Z,3.97
2023-04-15T02:35:56.821Z,5.32
2023-04-15T02:38:27.300Z,3.25
2023-04-15T02:40:57.739Z,2.10
2023-04-15T02:43:31.663Z,5.07
2023-04-15T02:46:03.448Z,5.82
2023-04-15T02:48:33.504Z,5.30
2023-04-15T02:51:15.493Z,2.90
2023-04-15T02:53:45.311Z,3.70
2023-04-15T02:56:16.559Z,6.50
2023-04-15T02:58:51.658Z,3.25
2023-04-15T03:01:22.349Z,8.32
2023-04-15T03:03:52.232Z,5.20
2023-04-15T03:06:22.480Z,4.60
2023-04-15T03:08:52.817Z,5.70
2023-04-15T03:11:23.889Z,6.00
2023-04-15T03:13:53.544Z,4.72
2023-04-15T03:16:30.164Z,5.22
2023-04-15T03:19:00.966Z,3.40
2023-04-15T03:21:32.017Z,7.32
2023-04-15T03:24:02.001Z,6.60
2023-04-15T03:26:33.134Z,5.57
2023-04-15T03:29:07.688Z,5.88
2023-04-15T03:31:37.863Z,5.97
2023-04-15T03:34:07.770Z,10.57
2023-04-15T03:36:38.658Z,3.88
2023-04-15T03:39:08.331Z,3.00
2023-04-15T03:41:37.981Z,4.20
2023-04-15T03:44:08.087Z,6.95
2023-04-15T03:46:37.843Z,5.97
2023-04-15T03:49:08.829Z,1.67
2023-04-15T03:51:38.970Z,2.33
2023-04-15T03:54:08.639Z,5.97
2023-04-15T03:56:38.396Z,4.93
2023-04-15T03:59:08.449Z,0.88
2023-04-15T04:01:38.196Z,5.88
2023-04-15T04:04:07.983Z,5.68
2023-04-15T04:06:38.275Z,3.72
2023-04-15T04:09:07.913Z,5.30
2023-04-15T04:11:38.795Z,2.88
2023-04-15T04:14:08.923Z,2.90
2023-04-15T04:16:38.681Z,4.97
2023-04-15T04:19:08.531Z,7.13
2023-04-15T04:21:39.993Z,3.08
2023-04-15T04:24:09.719Z,5.80
2023-04-15T04:26:39.826Z,4.80
2023-04-15T04:29:09.503Z,6.57
2023-04-15T04:31:39.219Z,2.63
2023-04-15T04:34:09.372Z,4.10
2023-04-15T04:36:39.049Z,3.10
2023-04-15T04:39:09.056Z,8.85
2023-04-15T04:41:39.205Z,4.95
2023-04-15T04:44:08.859Z,2.63
2023-04-15T04:46:38.649Z,3.00
2023-04-15T04:49:08.772Z,5.30
2023-04-15T04:51:38.580Z,3.40
2023-04-15T04:54:08.757Z,5.55
2023-04-15T04:56:40.743Z,2.53
2023-04-15T04:59:10.670Z,2.55
2023-04-15T05:01:40.953Z,5.28
2023-04-15T05:04:10.732Z,8.18
2023-04-15T05:06:41.020Z,3.55
2023-04-15T05:09:10.760Z,4.85
2023-04-15T05:11:40.472Z,8.93
2023-04-15T05:14:10.563Z,4.47
2023-04-15T05:16:40.282Z,7.95
2023-04-15T05:19:10.705Z,6.43
2023-04-15T05:21:40.956Z,7.07
2023-04-15T05:24:10.741Z,9.55
2023-04-15T05:26:41.937Z,5.05
2023-04-15T05:29:12.474Z,10.18
2023-04-15T05:32:38.591Z,6.78
2023-04-15T05:35:26.868Z,8.80
2023-04-15T05:37:57.563Z,6.60
2023-04-15T05:40:27.766Z,4.35
2023-04-15T05:42:58.272Z,3.72
2023-04-15T05:45:28.443Z,6.13
2023-04-15T05:47:58.947Z,8.95
2023-04-15T05:50:29.443Z,6.63
2023-04-15T05:53:00.578Z,4.32
2023-04-15T05:55:30.588Z,8.63
2023-04-15T05:58:00.966Z,6.82
2023-04-15T06:00:30.968Z,4.57
2023-04-15T06:03:01.742Z,5.45
2023-04-15T06:05:31.708Z,7.30
2023-04-15T06:08:02.598Z,10.45
2023-04-15T06:10:37.416Z,6.53
2023-04-15T06:13:08.280Z,6.50
2023-04-15T06:15:38.829Z,5.97
2023-04-15T06:18:09.126Z,3.55
2023-04-15T06:20:39.076Z,9.20
2023-04-15T06:23:09.373Z,5.47
2023-04-15T06:25:39.311Z,6.57
2023-04-15T06:28:09.923Z,8.23
2023-04-15T06:30:40.253Z,11.30
2023-04-15T06:33:11.927Z,7.30
2023-04-15T06:35:42.198Z,7.80
2023-04-15T06:38:12.582Z,7.35
2023-04-15T06:40:42.550Z,4.88
2023-04-15T06:43:12.874Z,4.78
2023-04-15T06:45:42.691Z,2.85
2023-04-15T06:48:13.977Z,5.35
2023-04-15T06:50:44.247Z,3.47
2023-04-15T06:53:14.648Z,3.65
2023-04-15T06:55:44.556Z,6.45
2023-04-15T06:58:14.989Z,3.20
2023-04-15T07:00:45.745Z,4.68
2023-04-15T07:03:16.330Z,2.83
2023-04-15T07:05:46.881Z,2.88
2023-04-15T07:08:17.188Z,5.28
2023-04-15T07:10:48.302Z,5.28
2023-04-15T07:13:18.772Z,6.20
2023-04-15T07:15:48.649Z,5.57
2023-04-15T07:18:19.027Z,4.55
2023-04-15T07:20:49.157Z,3.83
2023-04-15T07:23:19.739Z,4.40
2023-04-15T07:25:49.662Z,4.55
2023-04-15T07:28:20.058Z,5.07
2023-04-15T07:30:50.561Z,6.65
2023-04-15T07:33:21.058Z,4.60
2023-04-15T07:35:51.201Z,6.85
2023-04-15T07:38:21.621Z,6.00
2023-04-15T07:40:51.897Z,6.10
2023-04-15T07:43:23.185Z,3.35
2023-04-15T07:45:53.183Z,6.28
2023-04-15T07:48:23.871Z,5.78
2023-04-15T07:50:53.956Z,5.88
2023-04-15T07:53:24.353Z,5.32
2023-04-15T07:55:54.241Z,5.38
2023-04-15T07:58:24.652Z,6.28
2023-04-15T08:00:56.253Z,5.97
2023-04-15T08:03:27.252Z,7.78
2023-04-15T08:05:57.335Z,5.95
2023-04-15T08:08:27.779Z,7.40
2023-04-15T08:10:57.718Z,6.97
2023-04-15T08:13:28.808Z,7.35
2023-04-15T08:16:24.627Z,6.00
2023-04-15T08:18:59.066Z,8.65
2023-04-15T08:21:31.850Z,6.82
2023-04-15T08:24:02.853Z,10.10
2023-04-15T08:26:32.821Z,9.68
2023-04-15T08:29:03.535Z,8.68
2023-04-15T08:31:33.559Z,8.95
2023-04-15T08:34:04.726Z,9.82
2023-04-15T08:36:34.802Z,8.27
2023-04-15T08:39:05.980Z,9.63
2023-04-15T08:42:08.315Z,12.30
2023-04-15T08:44:39.436Z,8.00
2023-04-15T08:47:10.692Z,3.08
2023-04-15T08:49:45.681Z,51.40
2023-04-15T08:52:16.110Z,53.95
2023-04-15T08:54:47.765Z,50.35
2023-04-15T08:57:17.810Z,23.48
2023-04-15T08:59:48.640Z,2.20
2023-04-15T09:02:18.807Z,3.67
2023-04-15T09:04:49.330Z,4.95
2023-04-15T09:07:19.266Z,8.75
2023-04-15T09:09:50.601Z,9.43
2023-04-15T09:16:55.107Z,14.60
2023-04-15T09:19:27.498Z,10.77
2023-04-15T09:21:59.776Z,12.85
2023-04-15T09:27:10.031Z,12.65
2023-04-15T09:29:39.653Z,11.05
2023-04-15T09:32:14.545Z,9.57
2023-04-15T09:34:44.682Z,12.75
2023-04-15T09:37:28.990Z,31.10
2023-04-15T09:40:02.034Z,8.18
2023-04-15T09:42:32.197Z,7.63
2023-04-15T09:45:13.301Z,6.20
2023-04-15T09:47:43.622Z,11.32
2023-04-15T09:50:13.266Z,5.18
2023-04-15T09:52:46.226Z,8.40
2023-04-15T09:55:18.219Z,9.27
2023-04-15T09:57:48.563Z,7.70
2023-04-15T10:00:18.820Z,7.00
2023-04-15T10:02:49.688Z,6.55
2023-04-15T10:05:20.243Z,7.97
2023-04-15T10:07:51.229Z,7.85
2023-04-15T10:10:21.774Z,7.40
2023-04-15T10:12:53.656Z,7.85
2023-04-15T10:15:24.819Z,5.72
2023-04-15T10:17:55.796Z,5.28
2023-04-15T10:20:26.399Z,5.10
2023-04-15T10:22:56.403Z,5.45
2023-04-15T10:25:28.965Z,10.52
2023-04-15T10:27:59.803Z,5.47
2023-04-15T10:30:29.967Z,7.32
2023-04-15T10:33:00.740Z,7.93
2023-04-15T10:35:32.129Z,7.22
2023-04-15T10:38:02.312Z,3.28
2023-04-15T10:40:33.755Z,3.70
2023-04-15T10:43:04.807Z,3.45
2023-04-15T10:45:39.178Z,4.90
2023-04-15T10:48:10.280Z,3.10
2023-04-15T10:50:40.531Z,4.13
2023-04-15T10:53:12.881Z,4.55
2023-04-15T10:55:42.581Z,6.25
2023-04-15T10:58:12.435Z,3.42
2023-04-15T11:00:42.559Z,3.72
2023-04-15T11:03:13.229Z,4.10
2023-04-15T11:05:43.618Z,4.03
2023-04-15T11:08:14.363Z,1.88
2023-04-15T11:10:44.447Z,3.50
2023-04-15T11:13:13.903Z,3.63
2023-04-15T11:15:48.476Z,7.65
2023-04-15T11:18:25.300Z,7.75
2023-04-15T11:20:58.456Z,5.43
2023-04-15T11:23:45.171Z,3.45
2023-04-15T11:26:15.201Z,3.58
2023-04-15T11:28:47.301Z,5.25
2023-04-15T11:31:18.964Z,5.05
2023-04-15T11:33:55.759Z,5.53
2023-04-15T11:36:29.962Z,3.50
2023-04-15T11:39:00.985Z,2.95
2023-04-15T11:41:30.784Z,5.03
2023-04-15T11:44:01.014Z,2.78
2023-04-15T11:46:32.882Z,7.18
2023-04-15T11:49:02.932Z,4.82
2023-04-15T11:51:36.843Z,5.85
2023-04-15T11:54:07.710Z,6.00
2023-04-15T11:56:38.392Z,4.88
2023-04-15T11:59:08.437Z,3.92
2023-04-15T12:01:43.455Z,3.95
2023-04-15T12:04:21.662Z,5.20
2023-04-15T12:06:54.181Z,5.38
2023-04-15T12:09:24.430Z,3.75
2023-04-15T12:11:58.610Z,5.35
2023-04-15T12:14:29.977Z,4.50
2023-04-15T12:17:02.545Z,6.70
2023-04-15T12:19:33.830Z,3.88
2023-04-15T12:22:12.697Z,2.05
2023-04-15T12:24:50.718Z,2.42
2023-04-15T12:27:20.578Z,2.55
2023-04-15T12:29:50.055Z,2.70
2023-04-15T12:32:23.953Z,5.60
2023-04-15T12:34:55.529Z,3.95
2023-04-15T12:37:25.625Z,6.38
2023-04-15T12:39:55.505Z,1.33
2023-04-15T12:42:25.325Z,3.00
2023-04-15T12:44:55.307Z,5.68
2023-04-15T12:47:25.028Z,4.78
2023-04-15T12:49:55.107Z,4.22
2023-04-15T12:52:25.654Z,3.33
2023-04-15T12:54:55.719Z,5.47
2023-04-15T12:57:25.523Z,5.97
2023-04-15T12:59:55.190Z,6.25
2023-04-15T13:02:26.676Z,1.67
2023-04-15T13:04:56.997Z,4.18
2023-04-15T13:07:27.250Z,5.07
2023-04-15T13:09:56.986Z,2.97
2023-04-15T13:12:26.753Z,4.60
2023-04-15T13:14:57.099Z,2.70
2023-04-15T13:17:26.962Z,4.93
2023-04-15T13:19:57.167Z,2.95
2023-04-15T13:22:26.906Z,3.15
2023-04-15T13:24:56.690Z,4.85
2023-04-15T13:27:26.794Z,5.25
2023-04-15T13:29:56.863Z,1.63
2023-04-15T13:32:27.483Z,4.80
2023-04-15T13:34:57.409Z,4.00
2023-04-15T13:37:32.225Z,3.50
2023-04-15T13:40:02.130Z,5.63
2023-04-15T13:42:32.324Z,2.67
2023-04-15T13:45:01.960Z,4.07
2023-04-15T13:47:31.899Z,2.55
2023-04-15T13:50:02.208Z,2.65
2023-04-15T13:52:32.300Z,2.80
2023-04-15T13:55:18.525Z,4.50
2023-04-15T13:57:52.789Z,3.35
2023-04-15T14:00:22.871Z,4.22
2023-04-15T14:02:52.524Z,2.45
2023-04-15T14:05:22.319Z,3.58
2023-04-15T14:07:52.497Z,3.17
2023-04-15T14:10:22.525Z,4.32
2023-04-15T14:12:52.684Z,5.07
2023-04-15T14:15:23.370Z,1.27
2023-04-15T14:17:53.559Z,3.17
2023-04-15T14:20:23.324Z,3.60
2023-04-15T14:22:53.043Z,4.07
2023-04-15T14:25:30.813Z,3.90
2023-04-15T14:28:04.496Z,2.97
2023-04-15T14:30:34.374Z,2.92
2023-04-15T14:33:04.917Z,3.33
2023-04-15T14:35:34.758Z,3.15
2023-04-15T14:38:05.204Z,6.00
2023-04-15T14:40:35.520Z,3.22
2023-04-15T14:43:05.628Z,2.17
2023-04-15T14:45:36.181Z,3.42
2023-04-15T14:48:07.691Z,2.72
2023-04-15T14:50:38.121Z,2.47
2023-04-15T14:53:08.394Z,3.38
2023-04-15T14:55:39.511Z,5.30
2023-04-15T14:58:10.520Z,4.65
2023-04-15T15:00:43.596Z,2.25
2023-04-15T15:03:14.240Z,3.15
2023-04-15T15:05:46.389Z,2.33
2023-04-15T15:08:16.191Z,2.55
2023-04-15T15:10:49.498Z,2.20
2023-04-15T15:13:20.589Z,2.58
2023-04-15T15:15:53.318Z,3.33
2023-04-15T15:18:23.535Z,2.50
2023-04-15T15:20:53.480Z,3.33
2023-04-15T15:23:23.539Z,2.70
2023-04-15T15:25:53.227Z,3.92
2023-04-15T15:28:23.054Z,3.13
2023-04-15T15:30:53.236Z,3.72
2023-04-15T15:33:22.766Z,2.22
2023-04-15T15:35:52.940Z,3.17
2023-04-15T15:38:24.067Z,4.45
2023-04-15T15:40:53.874Z,3.95
2023-04-15T15:43:23.962Z,3.58
2023-04-15T15:45:56.473Z,2.08
2023-04-15T15:48:26.866Z,2.65
2023-04-15T15:50:56.846Z,2.20
2023-04-15T15:53:27.061Z,3.60
2023-04-15T15:55:56.648Z,2.58
2023-04-15T15:58:26.451Z,2.15
2023-04-15T16:00:55.945Z,3.60
2023-04-15T16:03:26.313Z,2.05
2023-04-15T16:05:55.920Z,4.18
2023-04-15T16:08:27.384Z,3.63
2023-04-15T16:10:58.930Z,3.80
2023-04-15T16:13:29.961Z,1.75
2023-04-15T16:16:00.708Z,4.65
2023-04-15T16:18:30.665Z,1.73
2023-04-15T16:21:01.488Z,1.20
2023-04-15T16:23:32.415Z,5.30
2023-04-15T16:26:02.734Z,6.15
2023-04-15T16:28:32.796Z,4.20
2023-04-15T16:31:03.784Z,3.22
2023-04-15T16:33:34.749Z,3.05
2023-04-15T16:36:06.079Z,3.92
2023-04-15T16:38:36.672Z,2.95
2023-04-15T16:41:07.140Z,4.32
2023-04-15T16:43:37.700Z,3.58
2023-04-15T16:46:07.716Z,3.90
2023-04-15T16:48:38.241Z,4.47
2023-04-15T16:51:08.568Z,2.92
2023-04-15T16:53:38.670Z,6.68
2023-04-15T16:56:09.196Z,4.15
2023-04-15T16:58:42.743Z,4.75
2023-04-15T17:01:13.446Z,3.20
2023-04-15T17:03:44.198Z,3.00
2023-04-15T17:06:16.187Z,2.63
2023-04-15T17:08:46.599Z,3.55
2023-04-15T17:11:17.076Z,3.38
2023-04-15T17:13:48.277Z,3.65
2023-04-15T17:16:18.375Z,6.28
2023-04-15T17:18:48.952Z,5.60
2023-04-15T17:21:19.212Z,5.82
2023-04-15T17:23:49.649Z,5.32
2023-04-15T17:26:20.690Z,5.80
2023-04-15T17:28:51.325Z,6.70
2023-04-15T17:31:21.834Z,8.02
2023-04-15T17:33:59.854Z,7.40
2023-04-15T17:36:37.555Z,6.65
2023-04-15T17:39:07.838Z,14.48
2023-04-15T17:41:38.233Z,9.50
2023-04-15T17:44:08.647Z,7.28
2023-04-15T17:46:38.953Z,9.40
2023-04-15T17:49:09.286Z,10.13
2023-04-15T17:51:39.168Z,8.13
2023-04-15T17:54:09.911Z,8.25
2023-04-15T17:56:39.903Z,9.85
2023-04-15T17:59:11.042Z,9.43
2023-04-15T18:01:43.621Z,9.90
2023-04-15T18:04:14.265Z,9.45
2023-04-15T18:06:44.317Z,11.02
2023-04-15T18:09:14.720Z,11.38
2023-04-15T18:11:46.199Z,8.73
2023-04-15T18:17:04.428Z,9.05
2023-04-15T18:19:34.799Z,8.93
2023-04-15T18:22:05.170Z,10.82
2023-04-15T18:24:35.592Z,12.80
2023-04-15T18:27:05.942Z,10.43
2023-04-15T18:29:36.354Z,9.45
2023-04-15T18:32:06.904Z,9.98
2023-04-15T18:34:36.941Z,9.85
2023-04-15T18:37:06.686Z,9.20
2023-04-15T18:39:37.196Z,9.05
2023-04-15T18:42:07.696Z,8.57
2023-04-15T18:44:38.087Z,9.43
2023-04-15T18:47:08.022Z,10.45
2023-04-15T18:49:38.338Z,12.32
2023-04-15T18:52:08.370Z,7.57
2023-04-15T18:54:39.183Z,10.07
2023-04-15T18:57:09.487Z,9.82
2023-04-15T18:59:39.791Z,8.40
2023-04-15T19:02:10.316Z,9.27
2023-04-15T19:04:40.773Z,8.23
2023-04-15T19:07:10.922Z,10.38
2023-04-15T19:09:42.230Z,8.00
2023-04-15T19:12:12.524Z,9.48
2023-04-15T19:14:43.203Z,8.98
2023-04-15T19:17:13.576Z,6.97
2023-04-15T19:19:44.237Z,6.72
2023-04-15T19:22:14.527Z,8.40
2023-04-15T19:24:44.966Z,7.35
2023-04-15T19:27:15.295Z,7.57
2023-04-15T19:29:45.267Z,8.32
2023-04-15T19:32:15.621Z,10.35
2023-04-15T19:34:45.959Z,9.65
2023-04-15T19:37:15.987Z,9.88
2023-04-15T19:39:46.301Z,9.48
2023-04-15T19:42:16.199Z,8.82
2023-04-15T19:44:46.580Z,13.50
2023-04-15T19:47:16.713Z,9.73
2023-04-15T19:49:47.078Z,9.40
2023-04-15T19:52:16.833Z,7.90
2023-04-15T19:54:47.277Z,8.93
2023-04-15T19:57:17.762Z,8.43
2023-04-15T19:59:48.106Z,9.05
2023-04-15T20:02:18.088Z,8.27
2023-04-15T20:04:48.542Z,9.35
2023-04-15T20:07:18.486Z,7.70
2023-04-15T20:09:49.127Z,8.38
2023-04-15T20:12:51.282Z,9.50
2023-04-15T20:15:11.271Z,8.32
2023-04-15T20:17:41.799Z,9.63
2023-04-15T20:20:12.411Z,12.18
2023-04-15T20:22:42.588Z,11.27
2023-04-15T20:25:12.956Z,8.13
2023-04-15T20:27:42.868Z,10.57
2023-04-15T20:30:13.362Z,10.27
2023-04-15T20:32:43.597Z,11.43
2023-04-15T20:35:14.184Z,11.90
2023-04-15T20:37:47.443Z,12.85
2023-04-15T20:40:17.545Z,13.13
2023-04-15T20:42:47.855Z,9.52
2023-04-15T20:45:17.990Z,13.27
2023-04-15T20:47:48.498Z,10.68
2023-04-15T20:50:18.535Z,10.88
2023-04-15T20:52:48.926Z,11.55
2023-04-15T20:55:18.930Z,12.00
2023-04-15T20:57:49.848Z,14.93
2023-04-15T21:00:21.308Z,13.35
2023-04-15T21:02:53.122Z,14.63
2023-04-15T21:05:23.792Z,12.35
2023-04-15T21:07:55.249Z,15.13
2023-04-15T21:10:26.373Z,16.17
2023-04-15T21:12:56.847Z,15.15
2023-04-15T21:15:26.921Z,16.88
2023-04-15T21:17:57.311Z,15.75
2023-04-15T21:20:27.076Z,18.15
2023-04-15T21:22:57.473Z,20.05
2023-04-15T21:25:27.312Z,21.55
2023-04-15T21:27:57.732Z,16.80
2023-04-15T21:30:27.704Z,16.70
2023-04-15T21:32:58.424Z,17.63
2023-04-15T21:35:29.947Z,17.50
2023-04-15T21:38:00.354Z,15.70
2023-04-15T21:40:30.158Z,17.17
2023-04-15T21:43:00.506Z,17.60
2023-04-15T21:45:30.508Z,24.48
2023-04-15T21:48:07.884Z,18.85
2023-04-15T21:50:41.600Z,17.70
2023-04-15T21:53:12.244Z,18.40
2023-04-15T21:55:42.155Z,17.25
2023-04-15T21:58:12.551Z,18.23
2023-04-15T22:00:42.562Z,20.13
2023-04-15T22:03:13.355Z,19.08
2023-04-15T22:05:47.502Z,21.42
2023-04-15T22:08:17.838Z,21.05
2023-04-15T22:10:47.924Z,20.27
2023-04-15T22:13:18.669Z,23.13
2023-04-15T22:15:48.755Z,16.90
2023-04-15T22:18:19.226Z,16.85
2023-04-15T22:20:49.176Z,19.52
2023-04-15T22:23:21.570Z,16.70
2023-04-15T22:25:51.533Z,17.67
2023-04-15T22:28:21.426Z,18.45
2023-04-15T22:30:51.773Z,13.95
2023-04-15T22:33:21.741Z,14.27
2023-04-15T22:35:52.184Z,15.07
2023-04-15T22:38:22.284Z,19.65
2023-04-15T22:40:55.057Z,16.70
2023-04-15T22:43:25.019Z,16.92
2023-04-15T22:45:55.941Z,17.30
2023-04-15T22:48:25.856Z,17.45
2023-04-15T22:50:56.219Z,16.10
2023-04-15T22:53:26.089Z,16.45
2023-04-15T22:55:56.479Z,19.40
2023-04-15T22:58:26.407Z,17.80
2023-04-15T23:00:56.902Z,16.08
2023-04-15T23:03:27.133Z,20.50
2023-04-15T23:05:58.683Z,20.83
2023-04-15T23:08:28.398Z,17.95
2023-04-15T23:10:58.733Z,18.02
2023-04-15T23:13:28.502Z,15.45
2023-04-15T23:15:58.933Z,15.10
2023-04-15T23:18:28.849Z,14.38
2023-04-15T23:20:59.197Z,12.85
2023-04-15T23:23:29.108Z,16.13
2023-04-15T23:25:59.525Z,19.40
2023-04-15T23:28:29.437Z,17.92
2023-04-15T23:31:00.425Z,19.05
2023-04-15T23:33:30.732Z,20.35
2023-04-15T23:36:01.355Z,18.60
2023-04-15T23:38:31.923Z,19.13
2023-04-15T23:41:02.153Z,23.20
2023-04-15T23:43:32.555Z,24.80
2023-04-15T23:46:02.507Z,19.95
2023-04-15T23:48:33.185Z,19.30
2023-04-15T23:51:03.212Z,21.88
2023-04-15T23:53:33.539Z,18.73
2023-04-15T23:56:03.501Z,21.42
2023-04-15T23:58:34.585Z,17.08
